sensor_id;sensor_type;location;lat;lon;timestamp;pressure;altitude;pressure_sealevel;temperature
69857;BMP280;57147;53.582;10.112;2022-07-06T00:04:01;102104.09;;;14.07
69857;BMP280;57147;53.582;10.112;2022-07-06T00:09:27;102115.78;;;14.16
69857;BMP280;57147;53.582;10.112;2022-07-06T00:14:31;102114.72;;;14.12
69857;BMP280;57147;53.582;10.112;2022-07-06T00:19:34;102120.06;;;14.12
69857;BMP280;57147;53.582;10.112;2022-07-06T00:24:35;102113.38;;;14.14
69857;BMP280;57147;53.582;10.112;2022-07-06T00:29:37;102106.09;;;14.20
69857;BMP280;57147;53.582;10.112;2022-07-06T00:34:46;102111.13;;;14.26
69857;BMP280;57147;53.582;10.112;2022-07-06T00:39:46;102109.91;;;14.14
69857;BMP280;57147;53.582;10.112;2022-07-06T00:44:47;102109.38;;;14.12
69857;BMP280;57147;53.582;10.112;2022-07-06T00:49:50;102108.34;;;14.08
69857;BMP280;57147;53.582;10.112;2022-07-06T00:54:51;102107.69;;;14.21
69857;BMP280;57147;53.582;10.112;2022-07-06T00:59:52;102109.84;;;14.19
69857;BMP280;57147;53.582;10.112;2022-07-06T01:04:55;102117.97;;;14.09
69857;BMP280;57147;53.582;10.112;2022-07-06T01:09:56;102120.53;;;14.19
69857;BMP280;57147;53.582;10.112;2022-07-06T01:14:56;102114.28;;;14.05
69857;BMP280;57147;53.582;10.112;2022-07-06T01:20:08;102106.81;;;14.01
69857;BMP280;57147;53.582;10.112;2022-07-06T01:25:09;102101.41;;;14.07
69857;BMP280;57147;53.582;10.112;2022-07-06T01:30:11;102102.47;;;14.11
69857;BMP280;57147;53.582;10.112;2022-07-06T01:40:45;102096.00;;;14.17
69857;BMP280;57147;53.582;10.112;2022-07-06T01:45:46;102107.34;;;14.03
69857;BMP280;57147;53.582;10.112;2022-07-06T01:50:47;102103.13;;;13.97
69857;BMP280;57147;53.582;10.112;2022-07-06T01:55:50;102094.13;;;13.88
69857;BMP280;57147;53.582;10.112;2022-07-06T02:00:50;102089.22;;;13.95
69857;BMP280;57147;53.582;10.112;2022-07-06T02:05:51;102086.88;;;13.89
69857;BMP280;57147;53.582;10.112;2022-07-06T02:10:54;102097.88;;;13.87
69857;BMP280;57147;53.582;10.112;2022-07-06T02:15:55;102102.63;;;13.90
69857;BMP280;57147;53.582;10.112;2022-07-06T02:20:56;102108.59;;;13.82
69857;BMP280;57147;53.582;10.112;2022-07-06T02:25:59;102112.28;;;13.86
69857;BMP280;57147;53.582;10.112;2022-07-06T02:31:00;102112.25;;;13.57
69857;BMP280;57147;53.582;10.112;2022-07-06T02:36:00;102108.25;;;13.55
69857;BMP280;57147;53.582;10.112;2022-07-06T02:41:03;102115.13;;;13.61
69857;BMP280;57147;53.582;10.112;2022-07-06T02:46:04;102103.44;;;13.57
69857;BMP280;57147;53.582;10.112;2022-07-06T02:51:05;102095.56;;;13.42
69857;BMP280;57147;53.582;10.112;2022-07-06T02:56:09;102098.50;;;13.40
69857;BMP280;57147;53.582;10.112;2022-07-06T03:01:10;102095.56;;;13.37
69857;BMP280;57147;53.582;10.112;2022-07-06T03:06:10;102097.69;;;13.45
69857;BMP280;57147;53.582;10.112;2022-07-06T03:11:14;102091.72;;;13.53
69857;BMP280;57147;53.582;10.112;2022-07-06T03:16:14;102102.91;;;13.55
69857;BMP280;57147;53.582;10.112;2022-07-06T03:21:15;102105.53;;;13.65
69857;BMP280;57147;53.582;10.112;2022-07-06T03:26:18;102107.38;;;13.65
69857;BMP280;57147;53.582;10.112;2022-07-06T03:31:18;102102.31;;;13.63
69857;BMP280;57147;53.582;10.112;2022-07-06T03:36:19;102105.53;;;13.65
69857;BMP280;57147;53.582;10.112;2022-07-06T03:41:22;102104.94;;;13.68
69857;BMP280;57147;53.582;10.112;2022-07-06T03:46:23;102096.91;;;13.73
69857;BMP280;57147;53.582;10.112;2022-07-06T03:51:24;102102.44;;;13.82
69857;BMP280;57147;53.582;10.112;2022-07-06T03:56:27;102096.91;;;13.73
69857;BMP280;57147;53.582;10.112;2022-07-06T04:01:28;102099.22;;;13.85
69857;BMP280;57147;53.582;10.112;2022-07-06T04:06:29;102119.78;;;13.84
69857;BMP280;57147;53.582;10.112;2022-07-06T04:11:32;102118.66;;;13.90
69857;BMP280;57147;53.582;10.112;2022-07-06T04:16:33;102128.53;;;13.56
69857;BMP280;57147;53.582;10.112;2022-07-06T04:21:33;102127.88;;;12.81
69857;BMP280;57147;53.582;10.112;2022-07-06T04:26:37;102136.22;;;12.39
69857;BMP280;57147;53.582;10.112;2022-07-06T04:31:37;102117.06;;;12.37
69857;BMP280;57147;53.582;10.112;2022-07-06T04:36:38;102116.44;;;12.65
69857;BMP280;57147;53.582;10.112;2022-07-06T04:41:41;102108.66;;;12.84
69857;BMP280;57147;53.582;10.112;2022-07-06T04:46:42;102105.91;;;13.04
69857;BMP280;57147;53.582;10.112;2022-07-06T04:51:42;102108.94;;;13.32
69857;BMP280;57147;53.582;10.112;2022-07-06T04:56:45;102108.91;;;13.37
69857;BMP280;57147;53.582;10.112;2022-07-06T05:01:46;102103.56;;;13.42
69857;BMP280;57147;53.582;10.112;2022-07-06T05:06:47;102103.56;;;13.42
69857;BMP280;57147;53.582;10.112;2022-07-06T05:11:50;102114.22;;;13.47
69857;BMP280;57147;53.582;10.112;2022-07-06T05:16:51;102093.81;;;13.56
69857;BMP280;57147;53.582;10.112;2022-07-06T05:21:51;102117.13;;;13.79
69857;BMP280;57147;53.582;10.112;2022-07-06T05:26:55;102122.41;;;13.89
69857;BMP280;57147;53.582;10.112;2022-07-06T05:31:55;102108.50;;;13.19
69857;BMP280;57147;53.582;10.112;2022-07-06T05:36:57;102106.97;;;13.03
69857;BMP280;57147;53.582;10.112;2022-07-06T05:42:00;102113.72;;;13.40
69857;BMP280;57147;53.582;10.112;2022-07-06T05:47:00;102121.19;;;13.38
69857;BMP280;57147;53.582;10.112;2022-07-06T05:52:01;102134.00;;;12.76
69857;BMP280;57147;53.582;10.112;2022-07-06T05:57:05;102138.81;;;12.64
69857;BMP280;57147;53.582;10.112;2022-07-06T06:02:05;102125.81;;;12.63
69857;BMP280;57147;53.582;10.112;2022-07-06T06:07:06;102133.75;;;12.73
69857;BMP280;57147;53.582;10.112;2022-07-06T06:12:10;102141.22;;;12.66
69857;BMP280;57147;53.582;10.112;2022-07-06T06:17:11;102149.31;;;12.30
69857;BMP280;57147;53.582;10.112;2022-07-06T06:22:12;102147.16;;;12.43
69857;BMP280;57147;53.582;10.112;2022-07-06T06:27:16;102134.06;;;12.51
69857;BMP280;57147;53.582;10.112;2022-07-06T06:32:17;102126.88;;;12.62
69857;BMP280;57147;53.582;10.112;2022-07-06T06:37:18;102147.88;;;12.73
69857;BMP280;57147;53.582;10.112;2022-07-06T06:42:21;102153.97;;;12.84
69857;BMP280;57147;53.582;10.112;2022-07-06T06:47:22;102157.63;;;13.03
69857;BMP280;57147;53.582;10.112;2022-07-06T06:52:23;102153.66;;;13.06
69857;BMP280;57147;53.582;10.112;2022-07-06T06:57:26;102162.78;;;13.44
69857;BMP280;57147;53.582;10.112;2022-07-06T07:02:27;102154.53;;;13.79
69857;BMP280;57147;53.582;10.112;2022-07-06T07:07:28;102170.63;;;13.69
69857;BMP280;57147;53.582;10.112;2022-07-06T07:12:31;102170.00;;;13.82
69857;BMP280;57147;53.582;10.112;2022-07-06T07:17:32;102177.81;;;14.08
69857;BMP280;57147;53.582;10.112;2022-07-06T07:22:32;102169.78;;;14.08
69857;BMP280;57147;53.582;10.112;2022-07-06T07:27:36;102153.41;;;13.85
69857;BMP280;57147;53.582;10.112;2022-07-06T07:32:36;102185.19;;;14.21
69857;BMP280;57147;53.582;10.112;2022-07-06T07:37:37;102176.28;;;14.54
69857;BMP280;57147;53.582;10.112;2022-07-06T07:42:40;102189.03;;;14.62
69857;BMP280;57147;53.582;10.112;2022-07-06T07:47:41;102187.41;;;14.61
69857;BMP280;57147;53.582;10.112;2022-07-06T07:52:42;102185.28;;;14.63
69857;BMP280;57147;53.582;10.112;2022-07-06T07:57:45;102189.78;;;14.92
69857;BMP280;57147;53.582;10.112;2022-07-06T08:02:46;102173.38;;;14.74
69857;BMP280;57147;53.582;10.112;2022-07-06T08:07:47;102184.91;;;14.94
69857;BMP280;57147;53.582;10.112;2022-07-06T08:12:50;102186.19;;;15.39
69857;BMP280;57147;53.582;10.112;2022-07-06T08:17:50;102189.38;;;15.41
69857;BMP280;57147;53.582;10.112;2022-07-06T08:22:51;102192.00;;;15.46
69857;BMP280;57147;53.582;10.112;2022-07-06T08:27:54;102173.94;;;15.51
69857;BMP280;57147;53.582;10.112;2022-07-06T08:32:55;102184.03;;;15.59
69857;BMP280;57147;53.582;10.112;2022-07-06T08:37:56;102185.84;;;16.10
69857;BMP280;57147;53.582;10.112;2022-07-06T08:42:59;102178.53;;;16.15
69857;BMP280;57147;53.582;10.112;2022-07-06T08:48:04;102176.88;;;15.87
69857;BMP280;57147;53.582;10.112;2022-07-06T08:53:05;102173.88;;;15.75
69857;BMP280;57147;53.582;10.112;2022-07-06T08:58:08;102178.75;;;15.54
69857;BMP280;57147;53.582;10.112;2022-07-06T09:03:11;102187.84;;;15.53
69857;BMP280;57147;53.582;10.112;2022-07-06T09:08:12;102219.31;;;14.81
69857;BMP280;57147;53.582;10.112;2022-07-06T09:13:16;102215.69;;;14.15
69857;BMP280;57147;53.582;10.112;2022-07-06T09:18:16;102213.84;;;14.10
69857;BMP280;57147;53.582;10.112;2022-07-06T09:23:17;102215.31;;;14.55
69857;BMP280;57147;53.582;10.112;2022-07-06T09:28:20;102218.19;;;14.87
69857;BMP280;57147;53.582;10.112;2022-07-06T09:33:21;102218.06;;;14.98
69857;BMP280;57147;53.582;10.112;2022-07-06T09:38:26;102222.41;;;15.87
69857;BMP280;57147;53.582;10.112;2022-07-06T09:43:29;102213.75;;;15.77
69857;BMP280;57147;53.582;10.112;2022-07-06T09:48:29;102216.94;;;16.11
69857;BMP280;57147;53.582;10.112;2022-07-06T09:53:30;102217.66;;;16.30
69857;BMP280;57147;53.582;10.112;2022-07-06T09:58:38;102216.34;;;16.28
69857;BMP280;57147;53.582;10.112;2022-07-06T10:03:38;102212.06;;;16.13
69857;BMP280;57147;53.582;10.112;2022-07-06T10:08:40;102202.19;;;16.82
69857;BMP280;57147;53.582;10.112;2022-07-06T10:13:45;102200.44;;;17.49
69857;BMP280;57147;53.582;10.112;2022-07-06T10:18:47;102205.75;;;18.24
69857;BMP280;57147;53.582;10.112;2022-07-06T10:23:49;102199.16;;;18.30
69857;BMP280;57147;53.582;10.112;2022-07-06T10:28:53;102202.25;;;17.40
69857;BMP280;57147;53.582;10.112;2022-07-06T10:33:54;102215.63;;;16.22
69857;BMP280;57147;53.582;10.112;2022-07-06T10:38:55;102226.75;;;15.27
69857;BMP280;57147;53.582;10.112;2022-07-06T10:44:14;102225.53;;;14.48
69857;BMP280;57147;53.582;10.112;2022-07-06T10:49:16;102223.56;;;14.30
69857;BMP280;57147;53.582;10.112;2022-07-06T10:54:19;102217.91;;;14.02
69857;BMP280;57147;53.582;10.112;2022-07-06T10:59:23;102214.66;;;14.11
69857;BMP280;57147;53.582;10.112;2022-07-06T11:04:31;102186.63;;;14.37
69857;BMP280;57147;53.582;10.112;2022-07-06T11:09:32;102205.84;;;14.39
69857;BMP280;57147;53.582;10.112;2022-07-06T11:14:37;102204.41;;;14.75
69857;BMP280;57147;53.582;10.112;2022-07-06T11:19:48;102210.28;;;15.57
69857;BMP280;57147;53.582;10.112;2022-07-06T11:24:50;102196.78;;;16.00
69857;BMP280;57147;53.582;10.112;2022-07-06T11:29:54;102171.09;;;16.26
69857;BMP280;57147;53.582;10.112;2022-07-06T11:34:55;102197.22;;;17.25
69857;BMP280;57147;53.582;10.112;2022-07-06T11:39:55;102183.88;;;17.55
69857;BMP280;57147;53.582;10.112;2022-07-06T11:44:59;102176.44;;;18.14
69857;BMP280;57147;53.582;10.112;2022-07-06T11:49:59;102175.84;;;18.74
69857;BMP280;57147;53.582;10.112;2022-07-06T11:55:00;102172.66;;;17.31
69857;BMP280;57147;53.582;10.112;2022-07-06T12:00:05;102169.63;;;17.10
69857;BMP280;57147;53.582;10.112;2022-07-06T12:05:06;102172.19;;;16.80
69857;BMP280;57147;53.582;10.112;2022-07-06T12:10:08;102158.38;;;17.67
69857;BMP280;57147;53.582;10.112;2022-07-06T12:15:11;102148.19;;;17.77
69857;BMP280;57147;53.582;10.112;2022-07-06T12:20:13;102147.34;;;18.90
69857;BMP280;57147;53.582;10.112;2022-07-06T12:25:29;102151.81;;;18.21
69857;BMP280;57147;53.582;10.112;2022-07-06T12:30:32;102141.69;;;17.87
69857;BMP280;57147;53.582;10.112;2022-07-06T12:35:33;102132.84;;;18.26
69857;BMP280;57147;53.582;10.112;2022-07-06T12:40:36;102122.59;;;19.39
69857;BMP280;57147;53.582;10.112;2022-07-06T12:45:39;102131.78;;;19.85
69857;BMP280;57147;53.582;10.112;2022-07-06T12:50:40;102134.97;;;18.55
69857;BMP280;57147;53.582;10.112;2022-07-06T12:55:41;102119.19;;;18.14
69857;BMP280;57147;53.582;10.112;2022-07-06T13:00:46;102136.28;;;18.83
69857;BMP280;57147;53.582;10.112;2022-07-06T13:05:49;102131.94;;;18.39
69857;BMP280;57147;53.582;10.112;2022-07-06T13:10:50;102140.81;;;18.00
69857;BMP280;57147;53.582;10.112;2022-07-06T13:15:53;102121.94;;;18.22
69857;BMP280;57147;53.582;10.112;2022-07-06T13:20:54;102126.69;;;18.25
69857;BMP280;57147;53.582;10.112;2022-07-06T13:25:55;102131.19;;;18.73
69857;BMP280;57147;53.582;10.112;2022-07-06T13:30:58;102134.19;;;18.88
69857;BMP280;57147;53.582;10.112;2022-07-06T13:35:58;102119.34;;;18.91
69857;BMP280;57147;53.582;10.112;2022-07-06T13:41:00;102106.13;;;19.32
69857;BMP280;57147;53.582;10.112;2022-07-06T13:46:05;102112.19;;;19.12
69857;BMP280;57147;53.582;10.112;2022-07-06T13:51:06;102097.88;;;20.55
69857;BMP280;57147;53.582;10.112;2022-07-06T13:56:07;102093.31;;;20.47
69857;BMP280;57147;53.582;10.112;2022-07-06T14:01:11;102087.59;;;20.07
69857;BMP280;57147;53.582;10.112;2022-07-06T14:06:12;102092.84;;;20.03
69857;BMP280;57147;53.582;10.112;2022-07-06T14:11:13;102077.94;;;19.97
69857;BMP280;57147;53.582;10.112;2022-07-06T14:16:16;102079.91;;;19.88
69857;BMP280;57147;53.582;10.112;2022-07-06T14:21:17;102083.16;;;19.73
69857;BMP280;57147;53.582;10.112;2022-07-06T14:26:17;102082.63;;;20.09
69857;BMP280;57147;53.582;10.112;2022-07-06T14:31:21;102087.53;;;19.86
69857;BMP280;57147;53.582;10.112;2022-07-06T14:36:22;102084.47;;;19.67
69857;BMP280;57147;53.582;10.112;2022-07-06T14:41:22;102086.34;;;19.28
69857;BMP280;57147;53.582;10.112;2022-07-06T14:46:25;102083.94;;;19.35
69857;BMP280;57147;53.582;10.112;2022-07-06T14:51:26;102088.25;;;19.66
69857;BMP280;57147;53.582;10.112;2022-07-06T14:56:27;102079.91;;;19.88
69857;BMP280;57147;53.582;10.112;2022-07-06T15:01:31;102080.28;;;19.78
69857;BMP280;57147;53.582;10.112;2022-07-06T15:06:32;102078.19;;;19.83
69857;BMP280;57147;53.582;10.112;2022-07-06T15:11:33;102080.88;;;19.54
69857;BMP280;57147;53.582;10.112;2022-07-06T15:16:36;102083.16;;;19.73
69857;BMP280;57147;53.582;10.112;2022-07-06T15:21:37;102058.72;;;18.68
69857;BMP280;57147;53.582;10.112;2022-07-06T15:26:37;102087.78;;;18.31
69857;BMP280;57147;53.582;10.112;2022-07-06T15:31:41;102074.41;;;18.57
69857;BMP280;57147;53.582;10.112;2022-07-06T15:36:41;102062.19;;;18.60
69857;BMP280;57147;53.582;10.112;2022-07-06T15:41:42;102058.81;;;18.20
69857;BMP280;57147;53.582;10.112;2022-07-06T15:46:45;102062.72;;;18.05
69857;BMP280;57147;53.582;10.112;2022-07-06T15:51:46;102065.34;;;17.88
69857;BMP280;57147;53.582;10.112;2022-07-06T15:56:46;102049.34;;;17.83
69857;BMP280;57147;53.582;10.112;2022-07-06T16:01:50;102045.06;;;18.73
69857;BMP280;57147;53.582;10.112;2022-07-06T16:06:50;102047.72;;;20.12
69857;BMP280;57147;53.582;10.112;2022-07-06T16:11:51;102035.56;;;20.60
69857;BMP280;57147;53.582;10.112;2022-07-06T16:16:55;102025.94;;;21.40
69857;BMP280;57147;53.582;10.112;2022-07-06T16:21:56;102010.75;;;23.02
69857;BMP280;57147;53.582;10.112;2022-07-06T16:26:57;102021.09;;;21.82
69857;BMP280;57147;53.582;10.112;2022-07-06T16:32:00;101992.88;;;19.87
69857;BMP280;57147;53.582;10.112;2022-07-06T16:37:01;101996.00;;;20.52
69857;BMP280;57147;53.582;10.112;2022-07-06T16:42:01;101994.31;;;20.26
69857;BMP280;57147;53.582;10.112;2022-07-06T16:47:05;101963.06;;;19.84
69857;BMP280;57147;53.582;10.112;2022-07-06T16:52:06;101969.53;;;20.45
69857;BMP280;57147;53.582;10.112;2022-07-06T16:57:07;101964.09;;;20.66
69857;BMP280;57147;53.582;10.112;2022-07-06T17:02:10;101957.66;;;20.58
69857;BMP280;57147;53.582;10.112;2022-07-06T17:07:13;101956.44;;;19.23
69857;BMP280;57147;53.582;10.112;2022-07-06T17:12:14;101950.97;;;19.02
69857;BMP280;57147;53.582;10.112;2022-07-06T17:17:17;101945.28;;;18.49
69857;BMP280;57147;53.582;10.112;2022-07-06T17:22:18;101926.91;;;18.51
69857;BMP280;57147;53.582;10.112;2022-07-06T17:27:18;101936.72;;;18.04
69857;BMP280;57147;53.582;10.112;2022-07-06T17:32:22;101932.44;;;18.11
69857;BMP280;57147;53.582;10.112;2022-07-06T17:37:22;101917.28;;;17.81
69857;BMP280;57147;53.582;10.112;2022-07-06T17:42:23;101928.03;;;18.15
69857;BMP280;57147;53.582;10.112;2022-07-06T17:47:26;101921.84;;;18.23
69857;BMP280;57147;53.582;10.112;2022-07-06T17:52:27;101926.59;;;18.09
69857;BMP280;57147;53.582;10.112;2022-07-06T17:57:28;101928.31;;;18.05
69857;BMP280;57147;53.582;10.112;2022-07-06T18:02:31;101920.59;;;18.12
69857;BMP280;57147;53.582;10.112;2022-07-06T18:07:32;101919.00;;;17.94
69857;BMP280;57147;53.582;10.112;2022-07-06T18:12:33;101928.31;;;17.88
69857;BMP280;57147;53.582;10.112;2022-07-06T18:17:36;101920.81;;;17.50
69857;BMP280;57147;53.582;10.112;2022-07-06T18:22:37;101907.72;;;17.49
69857;BMP280;57147;53.582;10.112;2022-07-06T18:27:38;101911.63;;;17.43
69857;BMP280;57147;53.582;10.112;2022-07-06T18:32:42;101896.47;;;17.47
69857;BMP280;57147;53.582;10.112;2022-07-06T18:37:42;101892.84;;;17.51
69857;BMP280;57147;53.582;10.112;2022-07-06T18:42:44;101886.22;;;17.40
69857;BMP280;57147;53.582;10.112;2022-07-06T18:47:48;101885.41;;;17.40
69857;BMP280;57147;53.582;10.112;2022-07-06T18:52:49;101862.09;;;17.18
69857;BMP280;57147;53.582;10.112;2022-07-06T18:57:51;101876.34;;;17.27
69857;BMP280;57147;53.582;10.112;2022-07-06T19:02:55;101878.56;;;17.25
69857;BMP280;57147;53.582;10.112;2022-07-06T19:07:56;101863.09;;;17.22
69857;BMP280;57147;53.582;10.112;2022-07-06T19:12:57;101863.97;;;17.09
69857;BMP280;57147;53.582;10.112;2022-07-06T19:18:02;101867.41;;;17.01
69857;BMP280;57147;53.582;10.112;2022-07-06T19:23:03;101865.81;;;17.00
69857;BMP280;57147;53.582;10.112;2022-07-06T19:28:04;101873.06;;;16.91
69857;BMP280;57147;53.582;10.112;2022-07-06T19:33:08;101860.16;;;16.93
69857;BMP280;57147;53.582;10.112;2022-07-06T19:38:09;101859.06;;;16.72
69857;BMP280;57147;53.582;10.112;2022-07-06T19:43:11;101871.94;;;16.39
69857;BMP280;57147;53.582;10.112;2022-07-06T19:48:15;101871.22;;;16.25
69857;BMP280;57147;53.582;10.112;2022-07-06T19:53:15;101869.94;;;15.72
69857;BMP280;57147;53.582;10.112;2022-07-06T19:58:17;101881.84;;;15.12
69857;BMP280;57147;53.582;10.112;2022-07-06T20:03:21;101873.44;;;14.54
69857;BMP280;57147;53.582;10.112;2022-07-06T20:08:23;101878.03;;;14.16
69857;BMP280;57147;53.582;10.112;2022-07-06T20:13:24;101851.31;;;13.73
69857;BMP280;57147;53.582;10.112;2022-07-06T20:18:27;101840.66;;;13.49
69857;BMP280;57147;53.582;10.112;2022-07-06T20:23:28;101860.28;;;13.82
69857;BMP280;57147;53.582;10.112;2022-07-06T20:28:29;101843.69;;;13.85
69857;BMP280;57147;53.582;10.112;2022-07-06T20:33:32;101843.13;;;13.88
69857;BMP280;57147;53.582;10.112;2022-07-06T20:38:33;101833.00;;;13.85
69857;BMP280;57147;53.582;10.112;2022-07-06T20:43:34;101827.22;;;13.78
69857;BMP280;57147;53.582;10.112;2022-07-06T20:48:37;101818.31;;;13.88
69857;BMP280;57147;53.582;10.112;2022-07-06T20:53:38;101817.44;;;13.92
69857;BMP280;57147;53.582;10.112;2022-07-06T20:58:38;101799.38;;;13.84
69857;BMP280;57147;53.582;10.112;2022-07-06T21:03:41;101811.38;;;13.87
69857;BMP280;57147;53.582;10.112;2022-07-06T21:08:42;101801.97;;;13.89
69857;BMP280;57147;53.582;10.112;2022-07-06T21:13:43;101784.44;;;13.83
69857;BMP280;57147;53.582;10.112;2022-07-06T21:18:46;101806.53;;;13.89
69857;BMP280;57147;53.582;10.112;2022-07-06T21:23:49;101775.78;;;13.73
69857;BMP280;57147;53.582;10.112;2022-07-06T21:28:49;101769.28;;;13.79
69857;BMP280;57147;53.582;10.112;2022-07-06T21:33:53;101757.03;;;13.78
69857;BMP280;57147;53.582;10.112;2022-07-06T21:38:59;101760.41;;;13.83
69857;BMP280;57147;53.582;10.112;2022-07-06T21:44:00;101754.16;;;13.74
69857;BMP280;57147;53.582;10.112;2022-07-06T21:49:03;101748.94;;;13.64
69857;BMP280;57147;53.582;10.112;2022-07-06T21:54:04;101735.59;;;13.64
69857;BMP280;57147;53.582;10.112;2022-07-06T21:59:05;101724.13;;;13.64
69857;BMP280;57147;53.582;10.112;2022-07-06T22:04:08;101724.47;;;13.57
69857;BMP280;57147;53.582;10.112;2022-07-06T22:09:09;101711.22;;;13.52
69857;BMP280;57147;53.582;10.112;2022-07-06T22:14:09;101710.78;;;13.45
69857;BMP280;57147;53.582;10.112;2022-07-06T22:19:12;101699.94;;;13.55
69857;BMP280;57147;53.582;10.112;2022-07-06T22:24:13;101709.06;;;13.54
69857;BMP280;57147;53.582;10.112;2022-07-06T22:29:14;101689.44;;;13.45
69857;BMP280;57147;53.582;10.112;2022-07-06T22:34:37;101685.47;;;13.42
69857;BMP280;57147;53.582;10.112;2022-07-06T22:39:37;101679.19;;;13.52
69857;BMP280;57147;53.582;10.112;2022-07-06T22:44:48;101674.84;;;13.56
69857;BMP280;57147;53.582;10.112;2022-07-06T22:55:21;101660.44;;;13.57
69857;BMP280;57147;53.582;10.112;2022-07-06T23:00:28;101659.44;;;13.53
69857;BMP280;57147;53.582;10.112;2022-07-06T23:05:39;101656.44;;;13.41
69857;BMP280;57147;53.582;10.112;2022-07-06T23:10:43;101621.63;;;13.08
69857;BMP280;57147;53.582;10.112;2022-07-06T23:15:44;101641.69;;;13.25
69857;BMP280;57147;53.582;10.112;2022-07-06T23:20:44;101631.59;;;13.22
69857;BMP280;57147;53.582;10.112;2022-07-06T23:25:48;101624.13;;;13.24
69857;BMP280;57147;53.582;10.112;2022-07-06T23:30:49;101621.66;;;13.27
69857;BMP280;57147;53.582;10.112;2022-07-06T23:35:51;101614.44;;;13.28
69857;BMP280;57147;53.582;10.112;2022-07-06T23:40:56;101609.31;;;13.31
69857;BMP280;57147;53.582;10.112;2022-07-06T23:45:56;101602.34;;;13.16
69857;BMP280;57147;53.582;10.112;2022-07-06T23:50:57;101594.13;;;13.32
69857;BMP280;57147;53.582;10.112;2022-07-06T23:56:00;101577.91;;;13.28
